createdAt,value
2023-04-12T00:00:54.571Z,14.46
2023-04-12T00:03:22.123Z,14.43
2023-04-12T00:05:54.666Z,14.42
2023-04-12T00:08:26.577Z,14.38
2023-04-12T00:10:53.498Z,14.30
2023-04-12T00:13:20.420Z,14.27
2023-04-12T00:15:47.057Z,14.22
2023-04-12T00:18:13.697Z,14.26
2023-04-12T00:20:40.292Z,14.27
2023-04-12T00:23:07.179Z,14.24
2023-04-12T00:25:33.709Z,14.24
2023-04-12T00:28:00.218Z,14.26
2023-04-12T00:30:27.194Z,14.20
2023-04-12T00:32:53.809Z,14.18
2023-04-12T00:35:20.388Z,14.18
2023-04-12T00:37:46.912Z,14.19
2023-04-12T00:40:13.626Z,14.13
2023-04-12T00:42:40.246Z,14.06
2023-04-12T00:45:07.502Z,13.98
2023-04-12T00:47:38.001Z,13.92
2023-04-12T00:50:06.070Z,14.09
2023-04-12T00:52:36.499Z,13.99
2023-04-12T00:55:07.486Z,13.90
2023-04-12T00:57:37.354Z,13.78
2023-04-12T01:00:06.099Z,13.84
2023-04-12T01:02:33.637Z,13.76
2023-04-12T01:05:01.762Z,13.75
2023-04-12T01:07:54.369Z,13.72
2023-04-12T01:10:54.810Z,13.76
2023-04-12T01:13:41.546Z,13.73
2023-04-12T01:16:11.239Z,13.69
2023-04-12T01:18:41.758Z,13.64
2023-04-12T01:21:18.708Z,13.52
2023-04-12T01:24:06.736Z,13.49
2023-04-12T01:26:37.183Z,13.54
2023-04-12T01:29:09.620Z,13.50
2023-04-12T01:31:37.070Z,13.41
2023-04-12T01:34:04.991Z,13.20
2023-04-12T01:36:32.390Z,13.09
2023-04-12T01:39:00.910Z,13.20
2023-04-12T01:41:27.530Z,13.26
2023-04-12T01:43:54.128Z,13.34
2023-04-12T01:46:23.233Z,13.16
2023-04-12T01:48:52.087Z,13.18
2023-04-12T01:51:25.567Z,13.24
2023-04-12T01:53:59.950Z,12.93
2023-04-12T01:56:32.029Z,13.10
2023-04-12T01:58:59.368Z,12.70
2023-04-12T02:01:26.623Z,12.92
2023-04-12T02:03:53.916Z,12.85
2023-04-12T02:06:21.032Z,12.78
2023-04-12T02:08:48.190Z,12.75
2023-04-12T02:11:14.974Z,12.90
2023-04-12T02:13:41.614Z,12.81
2023-04-12T02:16:10.804Z,12.85
2023-04-12T02:18:37.574Z,12.87
2023-04-12T02:21:04.234Z,12.93
2023-04-12T02:23:30.793Z,13.06
2023-04-12T02:25:57.811Z,13.05
2023-04-12T02:28:24.377Z,13.04
2023-04-12T02:30:53.902Z,13.05
2023-04-12T02:33:28.200Z,12.91
2023-04-12T02:35:56.258Z,12.95
2023-04-12T02:38:23.486Z,12.85
2023-04-12T02:40:50.018Z,12.78
2023-04-12T02:43:16.565Z,12.85
2023-04-12T02:45:43.153Z,12.80
2023-04-12T02:48:09.819Z,12.91
2023-04-12T02:50:37.527Z,13.02
2023-04-12T02:53:04.087Z,12.88
2023-04-12T02:55:30.755Z,12.86
2023-04-12T02:57:57.521Z,12.78
2023-04-12T03:00:24.401Z,12.77
2023-04-12T03:02:51.564Z,12.81
2023-04-12T03:05:18.924Z,12.66
2023-04-12T03:07:46.256Z,12.67
2023-04-12T03:10:13.369Z,12.51
2023-04-12T03:12:39.979Z,12.42
2023-04-12T03:15:07.083Z,12.29
2023-04-12T03:17:33.648Z,12.34
2023-04-12T03:20:09.748Z,12.11
2023-04-12T03:22:37.343Z,12.20
2023-04-12T03:25:05.196Z,12.24
2023-04-12T03:27:31.928Z,12.26
2023-04-12T03:29:58.475Z,12.17
2023-04-12T03:32:25.787Z,12.11
2023-04-12T03:34:52.440Z,12.07
2023-04-12T03:37:19.309Z,12.03
2023-04-12T03:39:48.085Z,12.16
2023-04-12T03:42:29.405Z,12.16
2023-04-12T03:44:59.350Z,12.07
2023-04-12T03:47:26.408Z,12.11
2023-04-12T03:50:10.445Z,12.27
2023-04-12T03:52:38.358Z,12.30
2023-04-12T03:55:07.453Z,12.26
2023-04-12T03:57:34.919Z,12.14
2023-04-12T04:00:02.958Z,12.17
2023-04-12T04:02:30.159Z,12.09
2023-04-12T04:04:57.013Z,12.11
2023-04-12T04:07:23.743Z,12.09
2023-04-12T04:09:50.412Z,12.06
2023-04-12T04:12:17.113Z,12.06
2023-04-12T04:14:44.265Z,12.09
2023-04-12T04:17:11.133Z,12.10
2023-04-12T04:19:38.309Z,11.97
2023-04-12T04:22:04.915Z,12.04
2023-04-12T04:24:31.547Z,12.03
2023-04-12T04:26:58.817Z,11.99
2023-04-12T04:29:26.161Z,11.94
2023-04-12T04:31:53.795Z,11.92
2023-04-12T04:34:22.249Z,11.92
2023-04-12T04:36:48.906Z,11.89
2023-04-12T04:39:15.876Z,11.92
2023-04-12T04:41:42.617Z,11.91
2023-04-12T04:44:10.585Z,11.87
2023-04-12T04:46:38.091Z,11.91
2023-04-12T04:49:05.849Z,11.79
2023-04-12T04:51:32.592Z,11.83
2023-04-12T04:53:59.366Z,11.83
2023-04-12T04:56:26.308Z,11.85
2023-04-12T04:58:54.729Z,11.82
2023-04-12T05:01:26.276Z,11.58
2023-04-12T05:03:53.084Z,11.70
2023-04-12T05:06:19.676Z,11.76
2023-04-12T05:08:46.272Z,11.82
2023-04-12T05:11:12.867Z,11.67
2023-04-12T05:13:39.397Z,11.66
2023-04-12T05:16:08.038Z,11.42
2023-04-12T05:18:34.683Z,10.99
2023-04-12T05:21:05.772Z,10.85
2023-04-12T05:23:37.143Z,11.11
2023-04-12T05:26:04.381Z,11.05
2023-04-12T05:28:30.956Z,11.16
2023-04-12T05:30:57.540Z,11.42
2023-04-12T05:33:24.186Z,11.62
2023-04-12T05:35:50.782Z,11.74
2023-04-12T05:38:17.419Z,11.81
2023-04-12T05:40:44.346Z,11.81
2023-04-12T05:43:14.070Z,11.85
2023-04-12T05:45:41.662Z,11.87
2023-04-12T05:48:09.269Z,11.89
2023-04-12T05:50:36.122Z,11.90
2023-04-12T05:53:03.583Z,11.92
2023-04-12T05:55:30.506Z,12.01
2023-04-12T05:57:58.600Z,12.02
2023-04-12T06:00:26.382Z,12.09
2023-04-12T06:02:53.152Z,12.01
2023-04-12T06:05:20.007Z,12.06
2023-04-12T06:07:49.733Z,12.10
2023-04-12T06:10:17.734Z,11.55
2023-04-12T06:12:44.905Z,11.70
2023-04-12T06:15:12.026Z,11.81
2023-04-12T06:17:39.172Z,11.96
2023-04-12T06:20:09.943Z,11.97
2023-04-12T06:22:37.257Z,12.11
2023-04-12T06:25:04.842Z,12.11
2023-04-12T06:27:31.869Z,11.91
2023-04-12T06:29:59.290Z,11.81
2023-04-12T06:32:26.268Z,11.73
2023-04-12T06:34:53.089Z,12.20
2023-04-12T06:37:19.632Z,11.79
2023-04-12T06:39:46.248Z,11.45
2023-04-12T06:42:14.863Z,11.41
2023-04-12T06:44:42.397Z,11.29
2023-04-12T06:47:09.517Z,11.88
2023-04-12T06:49:36.181Z,11.95
2023-04-12T06:52:02.807Z,12.01
2023-04-12T06:54:29.394Z,11.88
2023-04-12T06:56:57.406Z,11.88
2023-04-12T06:59:24.179Z,11.97
2023-04-12T07:01:50.816Z,12.20
2023-04-12T07:04:17.591Z,12.48
2023-04-12T07:06:44.336Z,12.51
2023-04-12T07:09:10.958Z,12.69
2023-04-12T07:11:37.598Z,12.71
2023-04-12T07:14:04.346Z,12.83
2023-04-12T07:16:34.120Z,13.01
2023-04-12T07:19:00.929Z,12.91
2023-04-12T07:21:27.879Z,12.94
2023-04-12T07:23:56.152Z,13.19
2023-04-12T07:26:23.223Z,13.32
2023-04-12T07:28:49.872Z,13.15
2023-04-12T07:31:16.446Z,13.08
2023-04-12T07:33:43.799Z,13.37
2023-04-12T07:36:11.727Z,13.60
2023-04-12T07:38:38.334Z,13.71
2023-04-12T07:41:05.114Z,13.85
2023-04-12T07:43:31.671Z,13.87
2023-04-12T07:45:58.759Z,13.88
2023-04-12T07:48:25.373Z,13.84
2023-04-12T07:50:52.051Z,14.08
2023-04-12T07:53:28.694Z,13.81
2023-04-12T07:55:56.383Z,13.86
2023-04-12T07:58:24.586Z,14.00
2023-04-12T08:00:51.814Z,13.61
2023-04-12T08:03:19.015Z,13.78
2023-04-12T08:05:49.486Z,13.99
2023-04-12T08:08:16.764Z,13.99
2023-04-12T08:10:43.391Z,13.91
2023-04-12T08:13:09.936Z,14.05
2023-04-12T08:15:36.815Z,14.01
2023-04-12T08:18:04.234Z,13.57
2023-04-12T08:20:31.689Z,13.89
2023-04-12T08:22:58.625Z,14.10
2023-04-12T08:25:25.241Z,14.19
2023-04-12T08:27:51.958Z,14.36
2023-04-12T08:30:19.565Z,14.38
2023-04-12T08:32:46.357Z,14.44
2023-04-12T08:35:15.375Z,14.54
2023-04-12T08:37:42.264Z,14.22
2023-04-12T08:40:09.382Z,14.21
2023-04-12T08:42:37.409Z,14.44
2023-04-12T08:45:09.665Z,14.47
2023-04-12T08:47:43.472Z,14.26
2023-04-12T08:50:13.905Z,14.12
2023-04-12T08:52:41.848Z,13.73
2023-04-12T08:55:10.161Z,13.91
2023-04-12T08:57:41.975Z,14.27
2023-04-12T09:00:10.522Z,14.34
2023-04-12T09:02:38.434Z,14.06
2023-04-12T09:05:06.768Z,13.99
2023-04-12T09:07:34.444Z,14.48
2023-04-12T09:10:01.946Z,14.49
2023-04-12T09:12:28.670Z,14.22
2023-04-12T09:15:13.423Z,14.10
2023-04-12T09:17:42.042Z,14.38
2023-04-12T09:20:17.689Z,14.72
2023-04-12T09:22:46.689Z,14.61
2023-04-12T09:25:15.068Z,14.90
2023-04-12T09:27:51.833Z,14.84
2023-04-12T09:30:20.455Z,14.76
2023-04-12T09:32:49.538Z,15.12
2023-04-12T09:35:16.548Z,15.20
2023-04-12T09:37:43.310Z,15.43
2023-04-12T09:40:10.661Z,15.59
2023-04-12T09:42:51.684Z,15.35
2023-04-12T09:45:26.420Z,15.36
2023-04-12T09:47:53.989Z,15.62
2023-04-12T09:50:22.982Z,15.65
2023-04-12T09:52:50.323Z,15.74
2023-04-12T09:55:18.231Z,16.02
2023-04-12T09:57:45.751Z,15.93
2023-04-12T10:00:17.730Z,16.05
2023-04-12T10:02:47.434Z,16.07
2023-04-12T10:05:19.668Z,16.23
2023-04-12T10:07:47.525Z,16.02
2023-04-12T10:10:16.571Z,16.30
2023-04-12T10:12:45.773Z,16.25
2023-04-12T10:15:13.527Z,16.44
2023-04-12T10:17:45.780Z,16.16
2023-04-12T10:20:18.178Z,15.95
2023-04-12T10:22:50.481Z,16.26
2023-04-12T10:25:23.796Z,16.59
2023-04-12T10:27:50.667Z,16.44
2023-04-12T10:30:33.227Z,16.51
2023-04-12T10:33:02.520Z,16.55
2023-04-12T10:35:30.448Z,16.83
2023-04-12T10:38:01.636Z,16.64
2023-04-12T10:40:32.633Z,16.92
2023-04-12T10:43:22.506Z,17.00
2023-04-12T10:45:49.888Z,16.78
2023-04-12T10:48:29.453Z,16.83
2023-04-12T10:51:23.484Z,16.76
2023-04-12T10:53:51.066Z,16.74
2023-04-12T10:56:32.047Z,16.53
2023-04-12T10:59:09.381Z,16.99
2023-04-12T11:01:38.892Z,16.76
2023-04-12T11:04:10.017Z,16.46
2023-04-12T11:07:10.270Z,16.73
2023-04-12T11:09:36.847Z,16.97
2023-04-12T11:12:09.444Z,16.89
2023-04-12T11:14:50.786Z,16.96
2023-04-12T11:17:17.445Z,16.90
2023-04-12T11:19:58.398Z,16.91
2023-04-12T11:22:31.312Z,16.83
2023-04-12T11:25:00.768Z,16.60
2023-04-12T11:27:29.057Z,16.63
2023-04-12T11:29:58.774Z,16.67
2023-04-12T11:32:27.869Z,16.55
2023-04-12T11:34:56.568Z,16.52
2023-04-12T11:37:24.230Z,16.20
2023-04-12T11:39:53.600Z,16.29
2023-04-12T11:42:23.803Z,16.10
2023-04-12T11:44:58.833Z,16.19
2023-04-12T11:47:27.432Z,16.26
2023-04-12T11:49:55.971Z,16.29
2023-04-12T11:52:30.388Z,16.40
2023-04-12T11:55:06.731Z,16.53
2023-04-12T11:57:35.555Z,16.45
2023-04-12T12:00:05.959Z,16.33
2023-04-12T12:02:41.159Z,16.22
2023-04-12T12:05:13.143Z,16.24
2023-04-12T12:07:40.082Z,16.21
2023-04-12T12:10:07.581Z,16.24
2023-04-12T12:12:34.290Z,16.22
2023-04-12T12:15:02.202Z,16.24
2023-04-12T12:17:29.069Z,15.99
2023-04-12T12:19:59.365Z,15.81
2023-04-12T12:22:26.126Z,15.71
2023-04-12T12:24:56.699Z,15.84
2023-04-12T12:27:38.003Z,15.71
2023-04-12T12:30:07.728Z,15.68
2023-04-12T12:32:37.151Z,15.73
2023-04-12T12:35:09.424Z,15.46
2023-04-12T12:37:36.441Z,15.30
2023-04-12T12:40:14.202Z,14.93
2023-04-12T12:42:59.299Z,14.91
2023-04-12T12:45:28.246Z,14.82
2023-04-12T12:48:03.209Z,14.71
2023-04-12T12:50:35.951Z,14.65
2023-04-12T12:53:04.277Z,14.61
2023-04-12T12:55:31.411Z,14.59
2023-04-12T12:58:06.633Z,14.44
2023-04-12T13:00:34.529Z,13.74
2023-04-12T13:03:01.764Z,13.52
2023-04-12T13:05:30.004Z,12.08
2023-04-12T13:07:56.560Z,10.77
2023-04-12T13:10:23.864Z,10.72
2023-04-12T13:12:50.794Z,10.64
2023-04-12T13:15:22.896Z,10.59
2023-04-12T13:17:53.754Z,10.73
2023-04-12T13:20:21.081Z,10.59
2023-04-12T13:22:47.734Z,10.72
2023-04-12T13:25:14.375Z,10.79
2023-04-12T13:27:41.072Z,10.68
2023-04-12T13:30:08.515Z,10.60
2023-04-12T13:32:36.200Z,10.55
2023-04-12T13:35:03.384Z,10.49
2023-04-12T13:37:30.123Z,10.47
2023-04-12T13:39:56.846Z,10.51
2023-04-12T13:42:23.849Z,10.47
2023-04-12T13:44:50.511Z,10.51
2023-04-12T13:47:18.002Z,10.60
2023-04-12T13:49:44.942Z,10.56
2023-04-12T13:52:14.243Z,10.54
2023-04-12T13:54:41.242Z,10.59
2023-04-12T13:57:08.107Z,10.59
2023-04-12T13:59:34.920Z,10.48
2023-04-12T14:02:01.746Z,10.42
2023-04-12T14:04:29.553Z,10.40
2023-04-12T14:06:57.063Z,10.50
2023-04-12T14:09:25.927Z,10.59
2023-04-12T14:11:55.313Z,10.59
2023-04-12T14:14:22.522Z,10.67
2023-04-12T14:16:51.817Z,10.66
2023-04-12T14:19:18.378Z,10.59
2023-04-12T14:21:45.024Z,10.43
2023-04-12T14:24:11.585Z,10.32
2023-04-12T14:26:39.922Z,10.40
2023-04-12T14:29:07.050Z,10.41
2023-04-12T14:31:36.154Z,10.40
2023-04-12T14:34:03.644Z,10.40
2023-04-12T14:36:31.860Z,10.43
2023-04-12T14:38:58.553Z,10.40
2023-04-12T14:41:25.800Z,10.31
2023-04-12T14:43:52.354Z,10.28
2023-04-12T14:46:19.107Z,10.23
2023-04-12T14:48:45.660Z,10.26
2023-04-12T14:51:12.184Z,10.25
2023-04-12T14:53:39.191Z,10.33
2023-04-12T14:56:16.929Z,10.51
2023-04-12T14:58:43.627Z,10.51
2023-04-12T15:01:12.745Z,10.32
2023-04-12T15:03:42.371Z,10.38
2023-04-12T15:06:09.235Z,10.51
2023-04-12T15:08:41.648Z,10.58
2023-04-12T15:11:10.572Z,10.60
2023-04-12T15:13:41.728Z,10.55
2023-04-12T15:16:09.339Z,10.43
2023-04-12T15:18:38.366Z,10.53
2023-04-12T15:21:12.888Z,10.43
2023-04-12T15:23:41.869Z,10.43
2023-04-12T15:26:12.398Z,10.51
2023-04-12T15:28:39.032Z,10.52
2023-04-12T15:31:06.381Z,10.59
2023-04-12T15:33:34.502Z,10.41
2023-04-12T15:36:02.379Z,10.54
2023-04-12T15:38:29.962Z,10.52
2023-04-12T15:41:01.569Z,10.60
2023-04-12T15:43:28.880Z,10.54
2023-04-12T15:45:56.270Z,10.57
2023-04-12T15:48:24.828Z,10.70
2023-04-12T15:50:52.358Z,10.61
2023-04-12T15:53:21.124Z,10.53
2023-04-12T15:55:47.776Z,10.44
2023-04-12T15:58:14.832Z,10.45
2023-04-12T16:00:42.229Z,10.49
2023-04-12T16:03:09.337Z,10.37
2023-04-12T16:05:36.485Z,10.43
2023-04-12T16:08:03.507Z,10.45
2023-04-12T16:10:30.534Z,10.33
2023-04-12T16:12:57.938Z,10.32
2023-04-12T16:15:24.531Z,10.42
2023-04-12T16:17:55.727Z,10.42
2023-04-12T16:20:23.011Z,10.45
2023-04-12T16:22:58.153Z,10.50
2023-04-12T16:25:28.007Z,10.66
2023-04-12T16:27:55.595Z,10.71
2023-04-12T16:30:23.010Z,10.89
2023-04-12T16:32:51.223Z,10.83
2023-04-12T16:35:17.988Z,10.75
2023-04-12T16:37:46.213Z,10.67
2023-04-12T16:40:13.129Z,10.71
2023-04-12T16:42:44.044Z,10.68
2023-04-12T16:45:12.234Z,10.79
2023-04-12T16:47:39.902Z,10.75
2023-04-12T16:50:09.208Z,10.77
2023-04-12T16:52:36.932Z,10.77
2023-04-12T16:55:04.206Z,10.75
2023-04-12T16:57:31.302Z,10.75
2023-04-12T16:59:58.066Z,10.77
2023-04-12T17:02:25.093Z,10.88
2023-04-12T17:04:52.067Z,10.90
2023-04-12T17:07:19.078Z,10.80
2023-04-12T17:09:45.974Z,10.84
2023-04-12T17:12:12.913Z,10.81
2023-04-12T17:14:39.554Z,10.75
2023-04-12T17:17:06.779Z,10.75
2023-04-12T17:19:33.820Z,10.79
2023-04-12T17:22:00.753Z,10.82
2023-04-12T17:24:28.649Z,10.84
2023-04-12T17:26:55.305Z,10.84
2023-04-12T17:29:21.856Z,10.88
2023-04-12T17:31:50.693Z,10.79
2023-04-12T17:34:19.836Z,10.82
2023-04-12T17:36:46.892Z,10.91
2023-04-12T17:39:13.583Z,10.93
2023-04-12T17:41:40.364Z,10.96
2023-04-12T17:44:07.852Z,11.07
2023-04-12T17:46:35.598Z,10.93
2023-04-12T17:49:05.663Z,10.93
2023-04-12T17:51:33.164Z,10.95
2023-04-12T17:54:00.730Z,10.92
2023-04-12T17:56:28.031Z,10.86
2023-04-12T17:58:55.471Z,10.80
2023-04-12T18:01:22.522Z,10.80
2023-04-12T18:03:49.554Z,10.86
2023-04-12T18:06:18.749Z,10.76
2023-04-12T18:08:47.076Z,10.71
2023-04-12T18:11:13.787Z,10.62
2023-04-12T18:13:40.909Z,10.29
2023-04-12T18:16:07.474Z,10.10
2023-04-12T18:18:34.255Z,9.71
2023-04-12T18:21:04.420Z,9.52
2023-04-12T18:23:30.953Z,9.48
2023-04-12T18:25:57.698Z,9.61
2023-04-12T18:28:24.858Z,9.62
2023-04-12T18:30:51.476Z,9.55
2023-04-12T18:33:18.342Z,9.55
2023-04-12T18:35:44.926Z,9.66
2023-04-12T18:38:11.529Z,9.66
2023-04-12T18:40:38.877Z,9.52
2023-04-12T18:43:05.466Z,9.51
2023-04-12T18:45:32.237Z,9.51
2023-04-12T18:48:00.408Z,9.58
2023-04-12T18:50:27.326Z,9.58
2023-04-12T18:52:53.858Z,9.53
2023-04-12T18:55:20.605Z,9.52
2023-04-12T18:57:49.145Z,9.57
2023-04-12T19:00:16.493Z,9.59
2023-04-12T19:02:43.543Z,9.59
2023-04-12T19:05:11.699Z,9.57
2023-04-12T19:07:38.375Z,9.58
2023-04-12T19:10:05.228Z,9.61
2023-04-12T19:12:32.150Z,9.61
2023-04-12T19:14:59.047Z,9.72
2023-04-12T19:17:27.819Z,9.66
2023-04-12T19:19:54.618Z,9.61
2023-04-12T19:22:21.517Z,9.58
2023-04-12T19:24:49.933Z,9.60
2023-04-12T19:27:16.801Z,9.60
2023-04-12T19:29:44.135Z,9.59
2023-04-12T19:32:13.463Z,9.60
2023-04-12T19:34:41.840Z,9.64
2023-04-12T19:37:08.703Z,9.61
2023-04-12T19:39:36.181Z,9.69
2023-04-12T19:42:03.420Z,9.74
2023-04-12T19:44:30.534Z,9.75
2023-04-12T19:46:57.497Z,9.69
2023-04-12T19:49:24.088Z,9.63
2023-04-12T19:51:51.760Z,9.70
2023-04-12T19:54:23.898Z,9.77
2023-04-12T19:56:50.617Z,9.67
2023-04-12T19:59:17.898Z,9.69
2023-04-12T20:01:50.517Z,9.69
2023-04-12T20:04:21.754Z,9.67
2023-04-12T20:06:52.018Z,9.60
2023-04-12T20:09:19.059Z,9.59
2023-04-12T20:11:46.124Z,9.56
2023-04-12T20:14:12.738Z,9.57
2023-04-12T20:16:42.705Z,9.60
2023-04-12T20:19:10.116Z,9.64
2023-04-12T20:21:36.787Z,9.61
2023-04-12T20:24:04.154Z,9.63
2023-04-12T20:26:34.081Z,9.65
2023-04-12T20:29:01.465Z,9.63
2023-04-12T20:31:28.479Z,9.60
2023-04-12T20:33:56.439Z,9.60
2023-04-12T20:36:23.664Z,9.67
2023-04-12T20:38:51.358Z,9.64
2023-04-12T20:41:18.678Z,9.68
2023-04-12T20:43:47.651Z,9.63
2023-04-12T20:46:17.483Z,9.70
2023-04-12T20:48:46.450Z,9.68
2023-04-12T20:51:14.728Z,9.70
2023-04-12T20:53:45.692Z,9.74
2023-04-12T20:56:13.147Z,9.66
2023-04-12T20:58:39.751Z,9.70
2023-04-12T21:01:07.732Z,9.64
2023-04-12T21:03:35.910Z,9.60
2023-04-12T21:06:02.824Z,9.54
2023-04-12T21:08:31.648Z,9.44
2023-04-12T21:10:58.810Z,9.49
2023-04-12T21:13:26.620Z,9.40
2023-04-12T21:15:54.457Z,9.34
2023-04-12T21:18:22.088Z,9.36
2023-04-12T21:20:49.823Z,9.33
2023-04-12T21:23:17.583Z,9.33
2023-04-12T21:25:48.070Z,9.32
2023-04-12T21:28:14.948Z,9.25
2023-04-12T21:30:42.165Z,9.26
2023-04-12T21:33:08.911Z,9.31
2023-04-12T21:35:35.571Z,9.28
2023-04-12T21:38:02.183Z,9.15
2023-04-12T21:40:29.025Z,9.14
2023-04-12T21:42:56.487Z,9.13
2023-04-12T21:45:25.048Z,9.18
2023-04-12T21:47:53.440Z,9.11
2023-04-12T21:50:20.403Z,9.12
2023-04-12T21:52:47.408Z,9.16
2023-04-12T21:55:13.990Z,9.17
2023-04-12T21:57:40.539Z,9.05
2023-04-12T22:00:09.972Z,8.99
2023-04-12T22:02:36.976Z,8.95
2023-04-12T22:05:04.095Z,8.98
2023-04-12T22:07:30.700Z,8.98
2023-04-12T22:09:58.664Z,8.95
2023-04-12T22:12:25.821Z,8.92
2023-04-12T22:14:52.759Z,8.83
2023-04-12T22:17:21.502Z,8.77
2023-04-12T22:19:48.384Z,8.80
2023-04-12T22:22:16.187Z,8.69
2023-04-12T22:24:44.151Z,8.68
2023-04-12T22:27:10.782Z,8.64
2023-04-12T22:29:37.876Z,8.69
2023-04-12T22:32:04.755Z,8.73
2023-04-12T22:34:32.473Z,8.63
2023-04-12T22:36:58.988Z,8.62
2023-04-12T22:39:26.974Z,8.56
2023-04-12T22:41:53.779Z,8.68
2023-04-12T22:44:23.687Z,8.66
2023-04-12T22:46:54.396Z,8.69
2023-04-12T22:49:28.393Z,8.59
2023-04-12T22:51:55.795Z,8.68
2023-04-12T22:54:26.001Z,8.60
2023-04-12T22:56:52.679Z,8.45
2023-04-12T22:59:20.144Z,8.46
2023-04-12T23:01:47.267Z,8.41
2023-04-12T23:04:15.832Z,8.26
2023-04-12T23:06:44.041Z,8.30
2023-04-12T23:09:11.989Z,8.27
2023-04-12T23:11:40.855Z,8.26
2023-04-12T23:14:08.959Z,8.25
2023-04-12T23:16:36.029Z,8.27
2023-04-12T23:19:05.307Z,8.21
2023-04-12T23:21:32.626Z,8.33
2023-04-12T23:23:59.384Z,8.43
2023-04-12T23:26:27.535Z,8.26
2023-04-12T23:28:54.157Z,8.08
2023-04-12T23:31:20.720Z,7.92
2023-04-12T23:33:47.341Z,7.96
2023-04-12T23:36:14.218Z,7.93
2023-04-12T23:38:44.254Z,8.06
2023-04-12T23:41:12.571Z,7.96
2023-04-12T23:43:39.248Z,8.02
2023-04-12T23:46:06.733Z,7.90
2023-04-12T23:48:33.500Z,7.63
2023-04-12T23:51:00.349Z,7.07
2023-04-12T23:53:27.089Z,6.06
2023-04-12T23:55:53.768Z,6.18
2023-04-12T23:58:21.073Z,6.21
